createdAt,value
2019-01-15T00:00:50.469Z,96.70
2019-01-15T00:01:50.465Z,96.28
2019-01-15T00:02:50.454Z,96.28
2019-01-15T00:03:50.425Z,96.38
2019-01-15T00:04:50.413Z,96.70
2019-01-15T00:05:50.401Z,96.80
2019-01-15T00:06:50.389Z,96.59
2019-01-15T00:07:50.397Z,97.01
2019-01-15T00:08:50.388Z,96.49
2019-01-15T00:09:50.359Z,96.70
2019-01-15T00:10:50.345Z,96.80
2019-01-15T00:11:50.337Z,96.70
2019-01-15T00:12:50.323Z,96.70
2019-01-15T00:13:50.337Z,96.38
2019-01-15T00:14:50.318Z,96.80
2019-01-15T00:15:50.292Z,96.80
2019-01-15T00:16:50.278Z,96.38
2019-01-15T00:17:50.272Z,96.70
2019-01-15T00:18:50.257Z,96.59
2019-01-15T00:19:50.276Z,97.01
2019-01-15T00:20:50.235Z,96.76
2019-01-15T00:21:50.223Z,96.80
2019-01-15T00:22:50.209Z,96.59
2019-01-15T00:23:50.201Z,96.70
2019-01-15T00:24:50.193Z,96.59
2019-01-15T00:25:50.209Z,97.43
2019-01-15T00:26:50.163Z,97.01
2019-01-15T00:27:50.155Z,97.53
2019-01-15T00:28:50.150Z,97.53
2019-01-15T00:29:50.131Z,97.53
2019-01-15T00:30:50.123Z,97.53
2019-01-15T00:31:50.165Z,97.32
2019-01-15T00:32:50.098Z,97.43
2019-01-15T00:33:50.086Z,97.11
2019-01-15T00:34:50.083Z,97.43
2019-01-15T00:35:50.063Z,97.64
2019-01-15T00:36:50.052Z,97.32
2019-01-15T00:37:50.075Z,97.32
2019-01-15T00:38:50.031Z,97.32
2019-01-15T00:39:50.023Z,97.32
2019-01-15T00:40:50.009Z,97.11
2019-01-15T00:41:49.995Z,97.11
2019-01-15T00:42:49.985Z,97.16
2019-01-15T00:43:50.002Z,97.85
2019-01-15T00:44:49.964Z,97.78
2019-01-15T00:45:49.949Z,97.89
2019-01-15T00:46:49.963Z,98.16
2019-01-15T00:47:49.979Z,97.74
2019-01-15T00:48:49.920Z,97.22
2019-01-15T00:49:49.950Z,97.32
2019-01-15T00:50:49.895Z,97.11
2019-01-15T00:51:49.882Z,97.53
2019-01-15T00:52:49.876Z,97.32
2019-01-15T00:53:49.864Z,97.22
2019-01-15T00:54:49.850Z,97.11
2019-01-15T00:55:49.859Z,97.53
2019-01-15T00:56:49.834Z,97.32
2019-01-15T00:57:49.820Z,97.53
2019-01-15T00:58:49.805Z,97.28
2019-01-15T00:59:49.803Z,97.74
2019-01-15T01:00:49.800Z,97.32
2019-01-15T01:01:49.782Z,97.11
2019-01-15T01:02:49.759Z,97.32
2019-01-15T01:03:49.752Z,97.11
2019-01-15T01:04:49.741Z,97.43
2019-01-15T01:05:49.727Z,97.32
2019-01-15T01:06:49.735Z,97.28
2019-01-15T01:07:49.715Z,97.11
2019-01-15T01:08:49.705Z,97.32
2019-01-15T01:09:49.682Z,97.64
2019-01-15T01:10:49.672Z,97.43
2019-01-15T01:11:49.659Z,97.28
2019-01-15T01:12:49.658Z,96.70
2019-01-15T01:13:50.463Z,96.66
2019-01-15T01:14:49.635Z,96.66
2019-01-15T01:15:49.615Z,96.66
2019-01-15T01:16:49.607Z,96.91
2019-01-15T01:17:49.649Z,96.86
2019-01-15T01:18:49.599Z,96.86
2019-01-15T01:19:49.573Z,96.34
2019-01-15T01:20:49.580Z,96.86
2019-01-15T01:21:49.552Z,96.55
2019-01-15T01:22:49.539Z,96.66
2019-01-15T01:23:49.526Z,96.66
2019-01-15T01:24:49.535Z,96.86
2019-01-15T01:25:49.507Z,96.66
2019-01-15T01:26:49.503Z,96.66
2019-01-15T01:27:49.478Z,96.97
2019-01-15T01:28:49.478Z,96.34
2019-01-15T01:29:49.474Z,96.34
2019-01-15T01:30:49.446Z,96.66
2019-01-15T01:31:49.439Z,96.34
2019-01-15T01:32:49.464Z,96.55
2019-01-15T01:33:49.414Z,96.44
2019-01-15T01:34:49.402Z,96.44
2019-01-15T01:35:49.406Z,96.49
2019-01-15T01:36:49.397Z,96.66
2019-01-15T01:37:49.367Z,96.66
2019-01-15T01:38:49.370Z,96.66
2019-01-15T01:39:49.347Z,96.76
2019-01-15T01:40:49.334Z,96.34
2019-01-15T01:41:49.322Z,96.23
2019-01-15T01:42:49.656Z,96.23
2019-01-15T01:43:49.299Z,96.34
2019-01-15T01:44:49.317Z,96.23
2019-01-15T01:45:49.278Z,96.34
2019-01-15T01:46:49.271Z,96.34
2019-01-15T01:47:49.271Z,95.92
2019-01-15T01:48:49.246Z,96.34
2019-01-15T01:49:49.235Z,96.34
2019-01-15T01:50:49.238Z,96.13
2019-01-15T01:51:49.216Z,96.13
2019-01-15T01:52:49.199Z,96.23
2019-01-15T01:53:49.198Z,96.55
2019-01-15T01:54:49.176Z,96.44
2019-01-15T01:55:49.172Z,96.44
2019-01-15T01:56:49.168Z,96.44
2019-01-15T01:57:49.144Z,96.34
2019-01-15T01:58:49.143Z,96.66
2019-01-15T01:59:49.137Z,96.55
2019-01-15T02:00:49.113Z,96.76
2019-01-15T02:01:49.110Z,96.23
2019-01-15T02:02:49.110Z,96.03
2019-01-15T02:03:49.091Z,96.03
2019-01-15T02:04:49.121Z,96.66
2019-01-15T02:05:49.053Z,96.55
2019-01-15T02:06:49.043Z,95.78
2019-01-15T02:07:49.035Z,96.23
2019-01-15T02:08:49.049Z,95.92
2019-01-15T02:09:49.009Z,95.82
2019-01-15T02:10:49.027Z,96.03
2019-01-15T02:11:48.993Z,95.88
2019-01-15T02:12:48.979Z,95.92
2019-01-15T02:13:48.967Z,96.09
2019-01-15T02:14:48.965Z,96.23
2019-01-15T02:15:48.945Z,95.92
2019-01-15T02:16:48.945Z,96.23
2019-01-15T02:17:48.921Z,96.13
2019-01-15T02:18:48.926Z,96.55
2019-01-15T02:19:48.895Z,96.23
2019-01-15T02:20:48.897Z,96.13
2019-01-15T02:21:48.875Z,96.55
2019-01-15T02:22:48.868Z,96.23
2019-01-15T02:23:48.867Z,96.17
2019-01-15T02:24:48.839Z,96.23
2019-01-15T02:25:48.862Z,96.34
2019-01-15T02:26:48.832Z,96.86
2019-01-15T02:27:48.803Z,96.55
2019-01-15T02:28:48.799Z,96.44
2019-01-15T02:29:48.801Z,96.76
2019-01-15T02:30:48.773Z,96.44
2019-01-15T02:31:48.763Z,96.55
2019-01-15T02:32:48.762Z,96.55
2019-01-15T02:33:48.742Z,96.76
2019-01-15T02:34:48.745Z,96.76
2019-01-15T02:35:48.721Z,96.44
2019-01-15T02:36:48.708Z,96.34
2019-01-15T02:37:48.693Z,96.66
2019-01-15T02:38:48.700Z,96.86
2019-01-15T02:39:48.674Z,96.44
2019-01-15T02:40:48.684Z,96.55
2019-01-15T02:41:48.649Z,96.66
2019-01-15T02:42:48.646Z,96.55
2019-01-15T02:43:48.636Z,96.55
2019-01-15T02:44:48.636Z,96.44
2019-01-15T02:45:48.621Z,96.76
2019-01-15T02:46:48.594Z,96.66
2019-01-15T02:47:48.587Z,96.86
2019-01-15T02:48:48.580Z,96.76
2019-01-15T02:49:48.560Z,96.55
2019-01-15T02:50:48.564Z,96.55
2019-01-15T02:51:48.549Z,96.66
2019-01-15T02:52:48.524Z,96.55
2019-01-15T02:53:48.531Z,96.34
2019-01-15T02:54:48.501Z,96.66
2019-01-15T02:55:48.493Z,96.55
2019-01-15T02:56:48.494Z,96.23
2019-01-15T02:57:48.469Z,96.23
2019-01-15T02:58:48.475Z,96.23
2019-01-15T02:59:48.448Z,96.55
2019-01-15T03:00:48.437Z,96.86
2019-01-15T03:01:48.425Z,96.66
2019-01-15T03:02:48.424Z,96.23
2019-01-15T03:03:48.420Z,96.23
2019-01-15T03:04:48.417Z,96.03
2019-01-15T03:05:48.383Z,95.92
2019-01-15T03:06:48.368Z,95.98
2019-01-15T03:07:48.356Z,95.61
2019-01-15T03:08:48.353Z,95.61
2019-01-15T03:09:48.332Z,95.50
2019-01-15T03:10:48.336Z,96.23
2019-01-15T03:11:48.312Z,95.50
2019-01-15T03:12:54.940Z,96.13
2019-01-15T03:13:49.308Z,96.03
2019-01-15T03:14:48.299Z,96.13
2019-01-15T03:15:48.264Z,96.13
2019-01-15T03:16:48.270Z,96.34
2019-01-15T03:17:48.248Z,95.92
2019-01-15T03:18:48.232Z,96.03
2019-01-15T03:19:48.220Z,95.92
2019-01-15T03:20:48.223Z,96.03
2019-01-15T03:21:48.208Z,96.44
2019-01-15T03:22:48.251Z,96.03
2019-01-15T03:23:48.173Z,96.55
2019-01-15T03:24:48.164Z,95.92
2019-01-15T03:25:48.155Z,96.19
2019-01-15T03:26:48.166Z,95.92
2019-01-15T03:27:48.148Z,96.23
2019-01-15T03:28:48.117Z,96.13
2019-01-15T03:29:48.108Z,96.55
2019-01-15T03:30:48.107Z,95.92
2019-01-15T03:31:48.087Z,95.92
2019-01-15T03:32:48.095Z,96.13
2019-01-15T03:33:48.082Z,96.34
2019-01-15T03:34:48.055Z,96.03
2019-01-15T03:35:48.068Z,96.30
2019-01-15T03:36:48.028Z,95.88
2019-01-15T03:37:48.030Z,95.98
2019-01-15T03:38:48.016Z,95.88
2019-01-15T03:39:47.995Z,95.98
2019-01-15T03:40:47.985Z,95.98
2019-01-15T03:41:47.989Z,95.78
2019-01-15T03:42:47.961Z,96.30
2019-01-15T03:43:47.949Z,96.30
2019-01-15T03:44:47.951Z,96.82
2019-01-15T03:45:47.932Z,96.50
2019-01-15T03:46:47.935Z,95.88
2019-01-15T03:47:47.905Z,96.09
2019-01-15T03:48:47.900Z,95.78
2019-01-15T03:49:47.884Z,96.09
2019-01-15T03:50:47.900Z,95.94
2019-01-15T03:51:47.861Z,96.09
2019-01-15T03:52:47.852Z,95.88
2019-01-15T03:53:47.836Z,96.09
2019-01-15T03:54:47.826Z,96.09
2019-01-15T03:55:47.821Z,96.09
2019-01-15T03:56:47.828Z,95.83
2019-01-15T03:57:47.793Z,95.98
2019-01-15T03:58:47.780Z,96.09
2019-01-15T03:59:47.770Z,96.09
2019-01-15T04:00:47.760Z,96.50
2019-01-15T04:01:47.758Z,96.40
2019-01-15T04:02:47.786Z,96.50
2019-01-15T04:03:47.727Z,96.67
2019-01-15T04:04:47.713Z,96.09
2019-01-15T04:05:47.703Z,96.30
2019-01-15T04:06:47.696Z,96.19
2019-01-15T04:07:47.693Z,96.61
2019-01-15T04:08:47.719Z,96.82
2019-01-15T04:09:47.662Z,96.19
2019-01-15T04:10:47.658Z,95.88
2019-01-15T04:11:47.634Z,96.25
2019-01-15T04:12:47.631Z,96.50
2019-01-15T04:13:47.629Z,95.98
2019-01-15T04:14:47.618Z,96.09
2019-01-15T04:15:47.594Z,96.36
2019-01-15T04:16:47.595Z,95.94
2019-01-15T04:17:47.719Z,96.09
2019-01-15T04:18:47.558Z,96.46
2019-01-15T04:19:47.553Z,96.09
2019-01-15T04:20:47.570Z,96.15
2019-01-15T04:21:47.527Z,95.83
2019-01-15T04:22:47.534Z,95.98
2019-01-15T04:23:47.515Z,95.98
2019-01-15T04:24:47.494Z,96.40
2019-01-15T04:25:47.479Z,95.88
2019-01-15T04:26:47.470Z,96.09
2019-01-15T04:27:47.453Z,95.83
2019-01-15T04:28:47.486Z,95.62
2019-01-15T04:29:47.448Z,95.42
2019-01-15T04:30:47.443Z,95.73
2019-01-15T04:31:47.414Z,95.83
2019-01-15T04:32:47.406Z,95.52
2019-01-15T04:33:47.388Z,95.94
2019-01-15T04:34:49.195Z,96.00
2019-01-15T04:35:47.366Z,96.15
2019-01-15T04:36:47.362Z,96.36
2019-01-15T04:37:47.382Z,95.00
2019-01-15T04:38:47.402Z,95.83
2019-01-15T04:39:47.326Z,95.73
2019-01-15T04:40:47.339Z,96.11
2019-01-15T04:41:47.306Z,95.73
2019-01-15T04:42:47.337Z,96.42
2019-01-15T04:43:47.282Z,95.17
2019-01-15T04:44:47.274Z,94.96
2019-01-15T04:45:47.277Z,94.96
2019-01-15T04:46:47.264Z,94.75
2019-01-15T04:47:47.237Z,94.85
2019-01-15T04:48:47.235Z,94.43
2019-01-15T04:49:47.413Z,94.23
2019-01-15T04:50:47.204Z,94.33
2019-01-15T04:51:47.194Z,94.33
2019-01-15T04:52:47.221Z,94.54
2019-01-15T04:53:47.180Z,94.43
2019-01-15T04:54:47.154Z,94.54
2019-01-15T04:55:47.165Z,94.54
2019-01-15T04:56:47.140Z,94.33
2019-01-15T04:57:47.139Z,94.54
2019-01-15T04:58:47.112Z,94.64
2019-01-15T04:59:47.106Z,94.75
2019-01-15T05:00:47.116Z,94.64
2019-01-15T05:01:47.095Z,94.39
2019-01-15T05:02:47.096Z,94.60
2019-01-15T05:03:47.077Z,94.39
2019-01-15T05:04:47.063Z,94.81
2019-01-15T05:05:47.035Z,94.29
2019-01-15T05:06:47.034Z,94.08
2019-01-15T05:07:47.010Z,94.29
2019-01-15T05:08:47.001Z,94.39
2019-01-15T05:09:47.021Z,94.81
2019-01-15T05:10:47.024Z,94.81
2019-01-15T05:11:47.013Z,94.81
2019-01-15T05:12:46.978Z,93.98
2019-01-15T05:13:46.970Z,95.12
2019-01-15T05:14:46.949Z,93.87
2019-01-15T05:15:46.923Z,93.87
2019-01-15T05:16:46.942Z,94.39
2019-01-15T05:17:46.931Z,93.98
2019-01-15T05:18:46.888Z,94.35
2019-01-15T05:19:46.874Z,94.35
2019-01-15T05:20:46.877Z,94.24
2019-01-15T05:21:46.868Z,93.93
2019-01-15T05:22:46.844Z,94.56
2019-01-15T05:23:46.840Z,95.29
2019-01-15T05:24:46.826Z,94.76
2019-01-15T05:25:46.823Z,94.76
2019-01-15T05:26:46.831Z,95.23
2019-01-15T05:27:46.821Z,94.98
2019-01-15T05:28:46.778Z,94.87
2019-01-15T05:29:46.778Z,95.08
2019-01-15T05:30:46.752Z,95.50
2019-01-15T05:31:46.746Z,95.50
2019-01-15T05:32:46.744Z,95.50
2019-01-15T05:33:46.750Z,96.12
2019-01-15T05:34:46.706Z,96.01
2019-01-15T05:35:46.699Z,95.60
2019-01-15T05:36:46.692Z,95.50
2019-01-15T05:37:46.680Z,95.18
2019-01-15T05:38:46.690Z,95.39
2019-01-15T05:39:46.669Z,95.81
2019-01-15T05:40:46.670Z,95.81
2019-01-15T05:41:46.641Z,96.33
2019-01-15T05:42:46.619Z,95.81
2019-01-15T05:43:46.619Z,95.70
2019-01-15T05:44:46.595Z,95.81
2019-01-15T05:45:46.625Z,96.01
2019-01-15T05:46:46.602Z,96.01
2019-01-15T05:47:46.566Z,96.33
2019-01-15T05:48:46.562Z,96.12
2019-01-15T05:49:46.544Z,96.75
2019-01-15T05:50:46.532Z,96.79
2019-01-15T05:51:46.536Z,96.43
2019-01-15T05:52:46.533Z,96.43
2019-01-15T05:53:46.506Z,97.27
2019-01-15T05:54:46.501Z,97.37
2019-01-15T05:55:46.484Z,97.06
2019-01-15T05:56:46.509Z,97.16
2019-01-15T05:57:46.452Z,97.27
2019-01-15T05:58:46.445Z,96.85
2019-01-15T05:59:46.430Z,97.16
2019-01-15T06:00:46.424Z,96.95
2019-01-15T06:01:46.424Z,96.64
2019-01-15T06:02:46.416Z,96.64
2019-01-15T06:03:46.408Z,96.95
2019-01-15T06:04:46.380Z,97.27
2019-01-15T06:05:46.368Z,96.85
2019-01-15T06:06:46.360Z,97.47
2019-01-15T06:07:46.436Z,97.47
2019-01-15T06:08:46.364Z,97.64
2019-01-15T06:09:46.376Z,97.74
2019-01-15T06:10:46.375Z,97.95
2019-01-15T06:11:46.311Z,97.64
2019-01-15T06:12:46.510Z,97.74
2019-01-15T06:13:46.272Z,97.53
2019-01-15T06:14:46.264Z,97.64
2019-01-15T06:15:46.308Z,97.47
2019-01-15T06:16:46.268Z,97.53
2019-01-15T06:17:46.235Z,97.33
2019-01-15T06:18:46.242Z,97.33
2019-01-15T06:19:46.209Z,97.33
2019-01-15T06:20:46.204Z,97.33
2019-01-15T06:21:46.200Z,97.33
2019-01-15T06:22:46.175Z,97.22
2019-01-15T06:23:46.168Z,97.22
2019-01-15T06:24:46.176Z,97.22
2019-01-15T06:25:46.164Z,97.33
2019-01-15T06:26:46.133Z,97.64
2019-01-15T06:27:46.124Z,97.64
2019-01-15T06:28:46.108Z,97.43
2019-01-15T06:29:46.124Z,97.53
2019-01-15T06:30:46.089Z,97.22
2019-01-15T06:31:46.088Z,97.07
2019-01-15T06:32:46.113Z,97.70
2019-01-15T06:33:46.052Z,96.97
2019-01-15T06:34:46.065Z,96.97
2019-01-15T06:35:46.035Z,96.97
2019-01-15T06:36:46.017Z,97.17
2019-01-15T06:37:46.028Z,97.49
2019-01-15T06:38:46.015Z,97.17
2019-01-15T06:39:45.988Z,96.86
2019-01-15T06:40:45.982Z,97.38
2019-01-15T06:41:45.961Z,97.38
2019-01-15T06:42:45.981Z,97.17
2019-01-15T06:43:49.942Z,97.38
2019-01-15T06:44:45.932Z,97.03
2019-01-15T06:45:45.960Z,97.70
2019-01-15T06:46:45.925Z,97.17
2019-01-15T06:47:45.925Z,97.49
2019-01-15T06:48:45.906Z,97.28
2019-01-15T06:49:45.892Z,97.38
2019-01-15T06:50:45.860Z,97.91
2019-01-15T06:51:45.901Z,97.59
2019-01-15T06:52:45.845Z,97.65
2019-01-15T06:53:45.828Z,97.55
2019-01-15T06:54:45.836Z,96.92
2019-01-15T06:55:45.820Z,97.13
2019-01-15T06:56:45.816Z,97.34
2019-01-15T06:57:45.818Z,96.92
2019-01-15T06:58:45.805Z,97.24
2019-01-15T06:59:45.765Z,97.13
2019-01-15T07:00:45.778Z,97.03
2019-01-15T07:01:45.760Z,97.34
2019-01-15T07:02:45.735Z,97.13
2019-01-15T07:03:45.730Z,97.34
2019-01-15T07:04:45.745Z,97.65
2019-01-15T07:05:45.693Z,97.34
2019-01-15T07:06:45.696Z,97.13
2019-01-15T07:07:45.705Z,97.65
2019-01-15T07:08:45.660Z,97.65
2019-01-15T07:09:45.660Z,97.34
2019-01-15T07:10:45.645Z,97.13
2019-01-15T07:11:45.644Z,97.24
2019-01-15T07:12:45.660Z,97.34
2019-01-15T07:13:45.603Z,97.55
2019-01-15T07:14:45.594Z,97.34
2019-01-15T07:15:45.620Z,97.34
2019-01-15T07:16:45.584Z,97.75
2019-01-15T07:17:45.576Z,97.34
2019-01-15T07:18:45.571Z,97.55
2019-01-15T07:19:45.554Z,97.55
2019-01-15T07:20:45.532Z,97.03
2019-01-15T07:21:45.525Z,97.24
2019-01-15T07:22:45.536Z,97.34
2019-01-15T07:23:45.495Z,97.65
2019-01-15T07:24:45.484Z,97.65
2019-01-15T07:25:45.496Z,97.65
2019-01-15T07:26:45.468Z,97.65
2019-01-15T07:27:45.448Z,97.55
2019-01-15T07:28:45.456Z,97.55
2019-01-15T07:29:45.432Z,97.55
2019-01-15T07:30:45.428Z,97.81
2019-01-15T07:31:45.424Z,97.92
2019-01-15T07:32:45.391Z,97.71
2019-01-15T07:33:45.383Z,97.50
2019-01-15T07:34:45.387Z,97.75
2019-01-15T07:35:45.367Z,97.81
2019-01-15T07:36:45.356Z,97.75
2019-01-15T07:37:45.339Z,97.65
2019-01-15T07:38:45.336Z,97.61
2019-01-15T07:39:45.318Z,97.50
2019-01-15T07:40:45.331Z,97.50
2019-01-15T07:41:45.303Z,97.71
2019-01-15T07:42:45.284Z,97.61
2019-01-15T07:43:45.267Z,97.81
2019-01-15T07:44:45.260Z,97.61
2019-01-15T07:45:45.283Z,97.81
2019-01-15T07:46:45.243Z,97.71
2019-01-15T07:47:45.223Z,97.50
2019-01-15T07:48:45.267Z,97.61
2019-01-15T07:49:45.217Z,97.19
2019-01-15T07:50:45.203Z,97.14
2019-01-15T07:51:45.204Z,97.35
2019-01-15T07:52:45.179Z,97.35
2019-01-15T07:53:45.171Z,97.45
2019-01-15T07:54:45.151Z,97.45
2019-01-15T07:55:45.140Z,97.14
2019-01-15T07:56:45.132Z,97.45
2019-01-15T07:57:45.129Z,97.35
2019-01-15T07:58:45.104Z,97.14
2019-01-15T07:59:45.115Z,97.04
2019-01-15T08:00:45.084Z,97.04
2019-01-15T08:01:45.076Z,97.56
2019-01-15T08:02:45.064Z,97.31
2019-01-15T08:03:45.084Z,97.35
2019-01-15T08:04:45.043Z,97.31
2019-01-15T08:05:45.023Z,97.62
2019-01-15T08:06:45.012Z,97.56
2019-01-15T08:07:45.019Z,97.67
2019-01-15T08:08:44.991Z,97.45
2019-01-15T08:09:44.991Z,97.25
2019-01-15T08:10:44.977Z,97.04
2019-01-15T08:11:44.981Z,97.35
2019-01-15T08:12:44.986Z,97.35
2019-01-15T08:13:44.952Z,97.56
2019-01-15T08:14:44.939Z,97.45
2019-01-15T08:15:44.930Z,97.20
2019-01-15T08:16:44.900Z,96.58
2019-01-15T08:17:44.912Z,96.62
2019-01-15T08:18:44.924Z,96.69
2019-01-15T08:19:44.867Z,96.73
2019-01-15T08:20:44.868Z,96.69
2019-01-15T08:21:44.847Z,96.83
2019-01-15T08:22:44.853Z,96.62
2019-01-15T08:23:44.823Z,96.58
2019-01-15T08:24:44.811Z,96.58
2019-01-15T08:25:44.799Z,96.62
2019-01-15T08:26:44.823Z,96.69
2019-01-15T08:27:44.789Z,96.79
2019-01-15T08:28:44.771Z,96.48
2019-01-15T08:29:44.828Z,96.58
2019-01-15T08:30:44.767Z,96.83
2019-01-15T08:31:44.748Z,97.00
2019-01-15T08:32:44.755Z,96.48
2019-01-15T08:33:44.724Z,95.96
2019-01-15T08:34:44.739Z,96.27
2019-01-15T08:35:44.724Z,96.27
2019-01-15T08:36:44.677Z,96.17
2019-01-15T08:37:44.707Z,96.17
2019-01-15T08:38:44.652Z,96.17
2019-01-15T08:39:44.643Z,96.48
2019-01-15T08:40:44.637Z,96.48
2019-01-15T08:41:44.619Z,97.00
2019-01-15T08:42:44.607Z,97.20
2019-01-15T08:43:44.619Z,96.37
2019-01-15T08:44:44.612Z,97.00
2019-01-15T08:45:44.599Z,97.00
2019-01-15T08:46:44.566Z,97.20
2019-01-15T08:47:44.555Z,97.00
2019-01-15T08:48:44.551Z,96.89
2019-01-15T08:49:44.622Z,96.79
2019-01-15T08:50:44.532Z,96.75
2019-01-15T08:51:44.519Z,96.12
2019-01-15T08:52:44.516Z,96.95
2019-01-15T08:53:44.484Z,96.95
2019-01-15T08:54:44.476Z,96.85
2019-01-15T08:55:44.492Z,96.75
2019-01-15T08:56:44.468Z,97.16
2019-01-15T08:57:44.451Z,95.92
2019-01-15T08:58:44.431Z,96.12
2019-01-15T08:59:44.423Z,96.12
2019-01-15T09:00:44.412Z,96.12
2019-01-15T09:01:44.416Z,95.92
2019-01-15T09:02:44.385Z,96.33
2019-01-15T09:03:44.395Z,96.02
2019-01-15T09:04:44.371Z,96.23
2019-01-15T09:05:44.353Z,96.02
2019-01-15T09:06:44.362Z,95.98
2019-01-15T09:07:44.344Z,96.33
2019-01-15T09:08:44.352Z,96.23
2019-01-15T09:09:44.312Z,95.77
2019-01-15T09:10:44.312Z,95.98
2019-01-15T09:11:44.287Z,95.87
2019-01-15T09:12:44.276Z,95.56
2019-01-15T09:13:44.275Z,95.77
2019-01-15T09:14:44.267Z,95.77
2019-01-15T09:15:44.239Z,95.87
2019-01-15T09:16:44.246Z,95.87
2019-01-15T09:17:44.218Z,95.46
2019-01-15T09:18:44.204Z,95.56
2019-01-15T09:19:44.211Z,95.77
2019-01-15T09:20:44.215Z,95.77
2019-01-15T09:21:44.172Z,95.56
2019-01-15T09:22:44.171Z,95.77
2019-01-15T09:23:44.156Z,95.51
2019-01-15T09:24:44.153Z,95.36
2019-01-15T09:25:44.127Z,95.83
2019-01-15T09:26:44.136Z,96.03
2019-01-15T09:27:44.111Z,95.51
2019-01-15T09:28:44.091Z,96.03
2019-01-15T09:29:44.083Z,96.03
2019-01-15T09:30:44.072Z,95.93
2019-01-15T09:31:44.076Z,95.41
2019-01-15T09:32:44.084Z,95.51
2019-01-15T09:33:44.036Z,95.41
2019-01-15T09:34:44.031Z,95.51
2019-01-15T09:35:44.063Z,95.31
2019-01-15T09:36:44.010Z,95.62
2019-01-15T09:37:44.004Z,95.26
2019-01-15T09:38:43.986Z,95.83
2019-01-15T09:39:43.991Z,95.51
2019-01-15T09:40:43.971Z,95.31
2019-01-15T09:41:43.971Z,95.31
2019-01-15T09:42:43.942Z,95.68
2019-01-15T09:43:43.932Z,95.31
2019-01-15T09:44:43.951Z,95.37
2019-01-15T09:45:43.904Z,95.26
2019-01-15T09:46:43.911Z,95.89
2019-01-15T09:47:43.883Z,95.57
2019-01-15T09:48:43.876Z,94.95
2019-01-15T09:49:43.863Z,94.95
2019-01-15T09:50:43.871Z,95.22
2019-01-15T09:51:43.835Z,95.68
2019-01-15T09:52:43.876Z,95.57
2019-01-15T09:53:43.832Z,94.43
2019-01-15T09:54:43.803Z,95.47
2019-01-15T09:55:43.795Z,95.68
2019-01-15T09:56:43.843Z,94.85
2019-01-15T09:57:43.784Z,94.74
2019-01-15T09:58:43.796Z,94.81
2019-01-15T09:59:43.748Z,94.95
2019-01-15T10:00:43.735Z,94.91
2019-01-15T10:01:43.731Z,94.81
2019-01-15T10:02:43.740Z,95.12
2019-01-15T10:03:43.707Z,95.12
2019-01-15T10:04:43.707Z,94.49
2019-01-15T10:05:43.679Z,95.12
2019-01-15T10:06:43.671Z,94.81
2019-01-15T10:07:43.679Z,95.53
2019-01-15T10:08:43.650Z,95.37
2019-01-15T10:09:43.645Z,94.60
2019-01-15T10:10:43.631Z,95.22
2019-01-15T10:11:43.623Z,95.01
2019-01-15T10:12:43.600Z,94.70
2019-01-15T10:13:43.604Z,94.91
2019-01-15T10:14:43.590Z,94.70
2019-01-15T10:15:43.579Z,95.01
2019-01-15T10:16:43.555Z,94.70
2019-01-15T10:17:43.555Z,95.12
2019-01-15T10:18:43.551Z,94.29
2019-01-15T10:19:43.523Z,94.45
2019-01-15T10:20:43.515Z,94.49
2019-01-15T10:21:43.513Z,94.08
2019-01-15T10:22:43.495Z,94.08
2019-01-15T10:23:43.479Z,93.73
2019-01-15T10:24:43.491Z,94.08
2019-01-15T10:25:43.467Z,94.04
2019-01-15T10:26:43.495Z,93.41
2019-01-15T10:27:43.436Z,94.39
2019-01-15T10:28:43.427Z,93.93
2019-01-15T10:29:43.426Z,94.08
2019-01-15T10:30:43.415Z,94.60
2019-01-15T10:31:43.412Z,93.98
2019-01-15T10:32:43.386Z,94.29
2019-01-15T10:33:43.369Z,93.52
2019-01-15T10:34:43.364Z,93.62
2019-01-15T10:35:43.359Z,93.41
2019-01-15T10:36:43.363Z,93.21
2019-01-15T10:37:43.323Z,93.83
2019-01-15T10:38:43.323Z,94.24
2019-01-15T10:39:43.303Z,93.83
2019-01-15T10:40:43.299Z,94.04
2019-01-15T10:41:43.282Z,93.62
2019-01-15T10:42:43.288Z,93.73
2019-01-15T10:43:43.263Z,94.35
2019-01-15T10:44:48.625Z,93.73
2019-01-15T10:45:44.232Z,93.73
2019-01-15T10:46:43.223Z,93.73
2019-01-15T10:47:43.251Z,93.10
2019-01-15T10:48:43.208Z,93.52
2019-01-15T10:49:43.189Z,93.52
2019-01-15T10:50:43.181Z,93.52
2019-01-15T10:51:43.167Z,92.80
2019-01-15T10:52:43.171Z,92.90
2019-01-15T10:53:43.174Z,93.21
2019-01-15T10:54:43.135Z,93.06
2019-01-15T10:55:43.127Z,93.16
2019-01-15T10:56:43.114Z,92.90
2019-01-15T10:57:43.102Z,92.90
2019-01-15T10:58:43.091Z,93.31
2019-01-15T10:59:43.087Z,92.90
2019-01-15T11:00:43.067Z,93.06
2019-01-15T11:01:43.067Z,92.96
2019-01-15T11:02:43.047Z,92.44
2019-01-15T11:03:43.034Z,92.76
2019-01-15T11:04:43.036Z,93.27
2019-01-15T11:05:43.019Z,92.65
2019-01-15T11:06:43.000Z,92.76
2019-01-15T11:07:42.993Z,92.55
2019-01-15T11:08:42.975Z,92.76
2019-01-15T11:09:42.967Z,92.55
2019-01-15T11:10:42.967Z,92.65
2019-01-15T11:11:42.943Z,92.24
2019-01-15T11:12:42.936Z,92.44
2019-01-15T11:13:42.923Z,92.55
2019-01-15T11:14:42.911Z,92.44
2019-01-15T11:15:43.433Z,92.76
2019-01-15T11:16:42.887Z,92.85
2019-01-15T11:17:42.893Z,92.55
2019-01-15T11:18:42.863Z,92.34
2019-01-15T11:19:42.855Z,92.03
2019-01-15T11:20:42.867Z,91.61
2019-01-15T11:21:42.843Z,91.41
2019-01-15T11:22:42.840Z,91.51
2019-01-15T11:23:42.815Z,91.20
2019-01-15T11:24:42.815Z,91.20
2019-01-15T11:25:42.793Z,91.30
2019-01-15T11:26:42.787Z,90.84
2019-01-15T11:27:42.763Z,91.09
2019-01-15T11:28:42.755Z,90.64
2019-01-15T11:29:42.743Z,90.89
2019-01-15T11:30:42.731Z,91.05
2019-01-15T11:31:42.736Z,90.37
2019-01-15T11:32:42.719Z,90.44
2019-01-15T11:33:42.699Z,90.33
2019-01-15T11:34:42.696Z,90.53
2019-01-15T11:35:42.671Z,90.33
2019-01-15T11:36:42.667Z,90.95
2019-01-15T11:37:42.679Z,90.02
2019-01-15T11:38:42.646Z,90.23
2019-01-15T11:39:42.647Z,90.53
2019-01-15T11:40:42.615Z,90.23
2019-01-15T11:41:42.607Z,90.53
2019-01-15T11:42:42.605Z,90.33
2019-01-15T11:43:42.599Z,90.12
2019-01-15T11:44:42.571Z,90.23
2019-01-15T11:45:42.565Z,90.33
2019-01-15T11:46:42.554Z,90.53
2019-01-15T11:47:42.544Z,89.40
2019-01-15T11:48:42.547Z,89.71
2019-01-15T11:49:42.528Z,89.29
2019-01-15T11:50:42.507Z,89.98
2019-01-15T11:51:42.497Z,90.02
2019-01-15T11:52:42.483Z,90.02
2019-01-15T11:53:42.475Z,89.40
2019-01-15T11:54:42.479Z,89.29
2019-01-15T11:55:42.458Z,90.08
2019-01-15T11:56:42.447Z,89.87
2019-01-15T11:57:42.428Z,89.36
2019-01-15T11:58:42.415Z,89.98
2019-01-15T11:59:42.427Z,89.25
2019-01-15T12:00:42.396Z,89.04
2019-01-15T12:01:42.391Z,88.64
2019-01-15T12:02:42.367Z,89.25
2019-01-15T12:03:42.383Z,88.64
2019-01-15T12:04:42.347Z,88.90
2019-01-15T12:05:42.346Z,88.74
2019-01-15T12:06:42.327Z,88.53
2019-01-15T12:07:42.315Z,88.84
2019-01-15T12:08:42.319Z,88.39
2019-01-15T12:09:42.295Z,88.18
2019-01-15T12:10:42.319Z,88.74
2019-01-15T12:11:42.271Z,88.39
2019-01-15T12:12:42.259Z,88.07
2019-01-15T12:13:42.307Z,87.97
2019-01-15T12:14:42.247Z,88.39
2019-01-15T12:15:42.222Z,88.18
2019-01-15T12:16:42.251Z,87.87
2019-01-15T12:17:42.201Z,88.28
2019-01-15T12:18:42.187Z,88.07
2019-01-15T12:19:42.237Z,87.87
2019-01-15T12:20:42.167Z,87.97
2019-01-15T12:21:42.159Z,88.49
2019-01-15T12:22:42.159Z,87.56
2019-01-15T12:23:42.159Z,87.66
2019-01-15T12:24:49.165Z,87.97
2019-01-15T12:25:42.119Z,87.87
2019-01-15T12:26:42.099Z,87.66
2019-01-15T12:27:42.094Z,87.62
2019-01-15T12:28:42.084Z,87.25
2019-01-15T12:29:42.079Z,87.00
2019-01-15T12:30:42.059Z,87.31
2019-01-15T12:31:42.051Z,87.46
2019-01-15T12:32:49.075Z,87.41
2019-01-15T12:33:42.023Z,87.52
2019-01-15T12:34:42.015Z,87.31
2019-01-15T12:35:42.011Z,87.52
2019-01-15T12:36:42.016Z,87.46
2019-01-15T12:37:41.987Z,87.21
2019-01-15T12:38:41.967Z,87.83
2019-01-15T12:39:41.971Z,87.52
2019-01-15T12:40:41.947Z,87.31
2019-01-15T12:41:41.990Z,87.41
2019-01-15T12:42:41.952Z,87.31
2019-01-15T12:43:41.915Z,87.83
2019-01-15T12:44:41.901Z,87.93
2019-01-15T12:45:41.903Z,87.93
2019-01-15T12:46:41.883Z,87.73
2019-01-15T12:47:41.867Z,87.93
2019-01-15T12:48:41.860Z,88.07
2019-01-15T12:49:41.854Z,88.04
2019-01-15T12:50:41.838Z,88.39
2019-01-15T12:51:41.837Z,88.24
2019-01-15T12:52:41.811Z,88.65